createdAt,value
2022-12-03T00:01:27.584Z,23
2022-12-03T00:06:58.230Z,22.9
2022-12-03T00:12:28.694Z,22.9
2022-12-03T00:17:59.137Z,22.9
2022-12-03T00:23:29.775Z,22.9
2022-12-03T00:29:00.206Z,22.9
2022-12-03T00:34:30.753Z,22.9
2022-12-03T00:40:01.377Z,22.9
2022-12-03T00:45:31.845Z,22.9
2022-12-03T00:51:02.317Z,22.8
2022-12-03T00:56:32.936Z,22.8
2022-12-03T01:02:03.451Z,22.8
2022-12-03T01:07:32.961Z,22.8
2022-12-03T01:13:03.396Z,22.8
2022-12-03T01:18:33.961Z,22.8
2022-12-03T01:24:04.523Z,22.8
2022-12-03T01:29:35.027Z,22.8
2022-12-03T01:35:05.465Z,22.8
2022-12-03T01:40:36.061Z,22.8
2022-12-03T01:46:06.618Z,22.8
2022-12-03T01:51:37.138Z,22.8
2022-12-03T01:57:07.619Z,22.7
2022-12-03T02:02:38.123Z,22.7
2022-12-03T02:08:07.649Z,22.8
2022-12-03T02:13:38.050Z,22.7
2022-12-03T02:19:08.559Z,22.7
2022-12-03T02:24:39.135Z,22.7
2022-12-03T02:30:09.629Z,22.7
2022-12-03T02:35:39.124Z,22.6
2022-12-03T02:41:09.585Z,22.6
2022-12-03T02:46:40.257Z,22.6
2022-12-03T02:52:10.666Z,22.6
2022-12-03T02:57:41.130Z,22.6
2022-12-03T03:03:11.739Z,22.6
2022-12-03T03:08:42.253Z,22.6
2022-12-03T03:14:12.701Z,22.6
2022-12-03T03:19:43.301Z,22.6
2022-12-03T03:25:14.371Z,22.6
2022-12-03T03:30:44.248Z,22.6
2022-12-03T03:36:14.967Z,22.6
2022-12-03T03:41:45.453Z,22.6
2022-12-03T03:47:16.013Z,22.6
2022-12-03T03:52:46.506Z,22.6
2022-12-03T03:58:17.007Z,22.6
2022-12-03T04:03:47.666Z,22.6
2022-12-03T04:09:18.037Z,22.6
2022-12-03T04:14:48.636Z,22.6
2022-12-03T04:20:19.129Z,22.6
2022-12-03T04:25:49.622Z,22.6
2022-12-03T04:31:20.131Z,22.6
2022-12-03T04:36:50.665Z,22.5
2022-12-03T04:42:21.135Z,22.5
2022-12-03T04:47:51.632Z,22.5
2022-12-03T04:53:21.103Z,22.5
2022-12-03T04:58:51.583Z,22.5
2022-12-03T05:04:22.224Z,22.5
2022-12-03T05:09:52.676Z,22.5
2022-12-03T05:15:23.150Z,22.5
2022-12-03T05:20:53.961Z,22.5
2022-12-03T05:26:24.233Z,22.6
2022-12-03T05:31:54.708Z,22.6
2022-12-03T05:37:25.330Z,22.5
2022-12-03T05:42:55.793Z,22.5
2022-12-03T05:48:26.375Z,22.5
2022-12-03T05:53:56.986Z,22.5
2022-12-03T05:59:27.441Z,22.5
2022-12-03T06:04:57.062Z,22.5
2022-12-03T06:10:27.445Z,22.5
2022-12-03T06:15:57.014Z,22.5
2022-12-03T06:21:27.413Z,22.5
2022-12-03T06:26:57.024Z,22.5
2022-12-03T06:32:27.484Z,22.5
2022-12-03T06:37:57.963Z,22.6
2022-12-03T06:43:27.476Z,22.6
2022-12-03T06:48:57.923Z,22.6
2022-12-03T06:54:28.394Z,22.5
2022-12-03T06:59:59.012Z,22.5
2022-12-03T07:05:29.459Z,22.5
2022-12-03T07:10:58.940Z,22.4
2022-12-03T07:16:29.502Z,22.3
2022-12-03T07:21:59.905Z,22.3
2022-12-03T07:27:30.564Z,22.3
2022-12-03T07:33:01.069Z,22.2
2022-12-03T07:38:30.523Z,22.2
2022-12-03T07:44:00.997Z,22.2
2022-12-03T07:49:31.505Z,22.2
2022-12-03T07:55:02.077Z,22.2
2022-12-03T08:00:32.610Z,22.2
2022-12-03T08:06:03.079Z,22.1
2022-12-03T08:11:33.630Z,22.1
2022-12-03T08:17:04.105Z,22.1
2022-12-03T08:22:34.605Z,22
2022-12-03T08:28:05.171Z,22
2022-12-03T08:33:35.664Z,22
2022-12-03T08:39:06.293Z,22
2022-12-03T08:44:36.862Z,22
2022-12-03T08:50:07.354Z,22
2022-12-03T08:55:36.857Z,22
2022-12-03T09:01:07.327Z,22
2022-12-03T09:06:37.779Z,21.9
2022-12-03T09:12:08.408Z,21.9
2022-12-03T09:17:38.893Z,21.9
2022-12-03T09:23:09.409Z,21.9
2022-12-03T09:28:38.947Z,21.9
2022-12-03T09:34:09.385Z,21.9
2022-12-03T09:39:39.974Z,21.9
2022-12-03T09:45:10.457Z,21.9
2022-12-03T09:50:40.906Z,21.9
2022-12-03T09:56:11.642Z,21.9
2022-12-03T10:01:42.597Z,21.8
2022-12-03T10:07:12.578Z,21.8
2022-12-03T10:12:42.082Z,21.9
2022-12-03T10:18:12.563Z,22
2022-12-03T10:23:42.070Z,22
2022-12-03T10:29:12.492Z,22.1
2022-12-03T10:34:42.992Z,22
2022-12-03T10:40:13.563Z,22.1
2022-12-03T10:45:44.172Z,22
2022-12-03T10:51:14.544Z,22
2022-12-03T10:56:43.996Z,22
2022-12-03T11:02:14.486Z,22
2022-12-03T11:07:45.155Z,22
2022-12-03T11:13:15.562Z,22
2022-12-03T11:18:46.074Z,22
2022-12-03T11:24:16.691Z,22
2022-12-03T11:29:47.122Z,22
2022-12-03T11:35:17.586Z,22
2022-12-03T11:40:48.219Z,21.9
2022-12-03T11:46:18.737Z,22
2022-12-03T11:51:49.151Z,21.9
2022-12-03T11:57:18.654Z,21.9
2022-12-03T12:02:49.391Z,21.9
2022-12-03T12:08:19.958Z,21.9
2022-12-03T12:13:50.312Z,21.9
2022-12-03T12:19:20.758Z,21.9
2022-12-03T12:24:50.245Z,21.9
2022-12-03T12:30:20.756Z,21.9
2022-12-03T12:35:51.197Z,21.9
2022-12-03T12:41:21.930Z,21.9
2022-12-03T12:46:52.493Z,21.9
2022-12-03T12:52:23.001Z,21.9
2022-12-03T12:57:53.483Z,21.9
2022-12-03T13:03:23.971Z,21.9
2022-12-03T13:08:53.444Z,21.9
2022-12-03T13:14:23.925Z,21.9
2022-12-03T13:20:05.170Z,21.9
2022-12-03T13:25:50.460Z,21.9
2022-12-03T13:30:55.584Z,21.9
2022-12-03T13:36:26.211Z,21.9
2022-12-03T13:41:56.651Z,21.9
2022-12-03T13:47:27.142Z,21.9
2022-12-03T13:52:57.734Z,21.9
2022-12-03T13:58:28.194Z,21.8
2022-12-03T14:03:58.671Z,21.8
2022-12-03T14:09:28.179Z,21.8
2022-12-03T14:14:58.632Z,21.8
2022-12-03T14:20:28.240Z,21.8
2022-12-03T14:25:58.738Z,21.8
2022-12-03T14:31:29.214Z,21.8
2022-12-03T14:36:59.794Z,21.7
2022-12-03T14:42:30.274Z,21.6
2022-12-03T14:48:00.726Z,21.6
2022-12-03T14:53:31.224Z,21.5
2022-12-03T14:59:00.725Z,21.5
2022-12-03T15:04:31.288Z,21.5
2022-12-03T15:10:01.775Z,21.5
2022-12-03T15:15:32.383Z,21.5
2022-12-03T15:21:02.828Z,21.5
2022-12-03T15:26:33.303Z,21.4
2022-12-03T15:32:03.919Z,21.5
2022-12-03T15:37:34.373Z,21.4
2022-12-03T15:43:03.851Z,21.4
2022-12-03T15:48:34.366Z,21.4
2022-12-03T15:54:04.810Z,21.4
2022-12-03T15:59:34.282Z,21.4
2022-12-03T16:05:04.867Z,21.4
2022-12-03T16:10:34.345Z,21.4
2022-12-03T16:16:04.891Z,21.4
2022-12-03T16:21:35.342Z,21.4
2022-12-03T16:27:05.910Z,21.4
2022-12-03T16:32:36.370Z,21.4
2022-12-03T16:38:06.871Z,21.5
2022-12-03T16:43:37.524Z,21.5
2022-12-03T16:49:07.993Z,21.6
2022-12-03T16:54:38.498Z,21.6
2022-12-03T17:00:09.094Z,21.7
2022-12-03T17:05:39.557Z,21.7
2022-12-03T17:11:10.276Z,21.8
2022-12-03T17:16:40.977Z,21.8
2022-12-03T17:22:11.227Z,21.8
2022-12-03T17:27:45.174Z,21.9
2022-12-03T17:33:12.323Z,21.8
2022-12-03T17:38:42.848Z,21.9
2022-12-03T17:44:17.896Z,21.9
2022-12-03T17:49:43.900Z,21.9
2022-12-03T17:55:22.284Z,21.9
2022-12-03T18:00:44.873Z,21.9
2022-12-03T18:06:15.453Z,21.9
2022-12-03T18:11:45.937Z,22
2022-12-03T18:17:15.447Z,22.2
2022-12-03T18:22:46.029Z,22.4
2022-12-03T18:28:16.521Z,22.5
2022-12-03T18:33:47.140Z,22.6
2022-12-03T18:39:17.594Z,22.8
2022-12-03T18:44:49.823Z,22.9
2022-12-03T18:50:17.593Z,23
2022-12-03T18:55:48.015Z,23
2022-12-03T19:01:18.785Z,23.1
2022-12-03T19:06:49.259Z,23.2
2022-12-03T19:12:19.732Z,23.2
2022-12-03T19:17:50.390Z,23.2
2022-12-03T19:23:20.814Z,23.2
2022-12-03T19:28:51.388Z,23.2
2022-12-03T19:34:21.870Z,23.1
2022-12-03T19:39:52.876Z,23.1
2022-12-03T19:45:23.019Z,23
2022-12-03T19:51:07.882Z,23
2022-12-03T19:56:23.943Z,22.9
2022-12-03T20:01:53.662Z,22.9
2022-12-03T20:07:23.880Z,22.8
2022-12-03T20:12:53.385Z,22.8
2022-12-03T20:18:23.838Z,22.9
2022-12-03T20:23:54.312Z,23
2022-12-03T20:29:24.937Z,23.1
2022-12-03T20:34:55.375Z,23.2
2022-12-03T20:40:25.862Z,23.2
2022-12-03T20:46:02.443Z,23.3
2022-12-03T20:51:26.937Z,23.3
2022-12-03T20:56:57.409Z,23.2
2022-12-03T21:02:28.186Z,23.2
2022-12-03T21:07:58.652Z,23.2
2022-12-03T21:13:32.320Z,23.1
2022-12-03T21:18:59.638Z,23.1
2022-12-03T21:24:30.108Z,23
2022-12-03T21:30:00.576Z,23
2022-12-03T21:35:31.202Z,22.9
2022-12-03T21:41:01.655Z,23
2022-12-03T21:47:10.666Z,23.1
2022-12-03T21:52:02.740Z,23.1
2022-12-03T21:57:33.337Z,23.2
2022-12-03T22:03:02.846Z,23.3
2022-12-03T22:08:33.301Z,23.3
2022-12-03T22:14:03.752Z,23.3
2022-12-03T22:19:33.246Z,23.4
2022-12-03T22:25:03.773Z,23.3
2022-12-03T22:30:33.299Z,23.3
2022-12-03T22:36:03.705Z,23.2
2022-12-03T22:41:34.244Z,23.2
2022-12-03T22:47:04.793Z,23.1
2022-12-03T22:52:35.257Z,23.1
2022-12-03T22:58:05.756Z,23
2022-12-03T23:03:35.264Z,23
2022-12-03T23:09:05.680Z,23
2022-12-03T23:14:35.198Z,23
2022-12-03T23:20:05.651Z,23
2022-12-03T23:25:36.137Z,22.9
2022-12-03T23:31:05.753Z,22.9
2022-12-03T23:36:36.100Z,22.9
2022-12-03T23:42:06.567Z,22.9
2022-12-03T23:47:36.076Z,22.8
2022-12-03T23:53:06.517Z,22.7
2022-12-03T23:58:37.008Z,22.7
